Time;durP1;ratioP1;P1;durP2;ratioP2;P2;SDS_P1;SDS_P2;PMS_P1;PMS_P2;Temp;Humidity;BMP_temperature;BMP_pressure;BME280_temperature;BME280_humidity;BME280_pressure;Samples;Min_cycle;Max_cycle;Signal;HPM_P1;HPM_P2
2022/10/13 00:02:33;;;;;;;12.40;9.38;;;;;;;12.19;94.06;101828.00;10375762;28;20030;-72
2022/10/13 00:07:34;;;;;;;14.20;10.68;;;;;;;12.22;94.34;101822.19;10373728;28;20053;-72
2022/10/13 00:12:35;;;;;;;12.27;8.98;;;;;;;12.24;93.90;101828.28;10375789;28;20041;-72
2022/10/13 00:17:35;;;;;;;15.65;10.50;;;;;;;12.23;94.53;101823.91;10373586;28;20030;-72
2022/10/13 00:22:36;;;;;;;27.55;12.88;;;;;;;12.29;94.69;101820.44;10373368;28;20069;-71
2022/10/13 00:27:36;;;;;;;18.45;13.18;;;;;;;12.35;95.29;101822.41;10374563;28;20086;-71
2022/10/13 00:32:37;;;;;;;22.20;13.13;;;;;;;12.44;97.30;101823.97;10375137;28;20037;-72
2022/10/13 00:37:37;;;;;;;18.55;12.27;;;;;;;12.53;96.77;101822.03;10375632;28;20073;-72
2022/10/13 00:42:40;;;;;;;23.05;13.27;;;;;;;12.61;96.85;101827.38;10379876;28;20416;-72
2022/10/13 00:47:44;;;;;;;19.15;13.23;;;;;;;12.64;97.58;101823.44;10395961;28;20041;-72
2022/10/13 00:52:44;;;;;;;23.67;13.23;;;;;;;12.67;98.72;101828.50;10380530;28;20037;-72
2022/10/13 00:57:45;;;;;;;14.70;12.38;;;;;;;12.70;100.00;101818.09;10380044;28;20041;-72
2022/10/13 01:02:45;;;;;;;14.07;11.70;;;;;;;12.73;99.98;101825.88;10380231;28;20030;-72
2022/10/13 01:07:47;;;;;;;18.38;11.27;;;;;;;12.72;100.00;101812.44;10378569;28;20073;-73
2022/10/13 01:13:03;;;;;;;18.23;12.68;;;;;;;12.72;100.00;101799.69;10379661;28;20095;-75
2022/10/13 01:18:19;;;;;;;27.83;13.55;;;;;;;12.65;100.00;101809.66;10392903;28;20033;-79
2022/10/13 01:23:52;;;;;;;14.80;12.27;;;;;;;12.60;100.00;101813.97;10416529;28;20034;-79
2022/10/13 01:29:17;;;;;;;20.65;12.45;;;;;;;12.53;100.00;101814.72;10388272;28;20081;-77
2022/10/13 01:34:21;;;;;;;18.17;12.70;;;;;;;12.49;100.00;101807.13;10380408;28;20029;-74
2022/10/13 01:39:36;;;;;;;17.60;13.77;;;;;;;12.48;100.00;101806.28;10378768;28;20087;-74
2022/10/13 01:44:39;;;;;;;22.48;12.95;;;;;;;12.48;100.00;101787.28;10394201;28;20072;-77
2022/10/13 01:49:39;;;;;;;23.27;15.18;;;;;;;12.46;100.00;101785.78;10359487;28;20032;-77
2022/10/13 01:54:39;;;;;;;33.92;16.65;;;;;;;12.44;100.00;101774.25;10377483;28;20042;-77
2022/10/13 01:59:40;;;;;;;18.48;14.07;;;;;;;12.43;100.00;101751.66;10378832;28;20061;-76
2022/10/13 02:04:47;;;;;;;18.92;13.23;;;;;;;12.44;100.00;101749.78;10376579;28;20521;-75
2022/10/13 02:09:50;;;;;;;32.55;15.32;;;;;;;12.43;100.00;101756.28;10377692;28;20037;-74
2022/10/13 02:14:51;;;;;;;21.15;13.32;;;;;;;12.39;100.00;101758.53;10378022;28;20044;-75
2022/10/13 02:19:51;;;;;;;33.22;14.95;;;;;;;12.42;100.00;101741.84;10392450;28;20022;-74
2022/10/13 02:24:52;;;;;;;26.50;15.00;;;;;;;12.44;100.00;101731.63;10393115;28;20065;-74
2022/10/13 02:29:54;;;;;;;21.88;15.20;;;;;;;12.48;100.00;101737.53;10376988;28;20080;-74
2022/10/13 02:34:54;;;;;;;23.00;15.05;;;;;;;12.53;100.00;101737.78;10392673;28;20450;-74
2022/10/13 02:39:55;;;;;;;21.73;16.20;;;;;;;12.60;100.00;101744.16;10377636;28;20069;-74
2022/10/13 02:44:55;;;;;;;24.60;17.27;;;;;;;12.61;100.00;101726.84;10392275;28;20045;-74
2022/10/13 02:49:55;;;;;;;23.20;15.90;;;;;;;12.59;100.00;101726.16;10376175;28;20351;-74
2022/10/13 02:54:56;;;;;;;23.00;15.13;;;;;;;12.61;100.00;101729.53;10375546;28;20045;-74
2022/10/13 02:59:56;;;;;;;24.13;13.60;;;;;;;12.61;100.00;101723.28;10375743;28;20113;-74
2022/10/13 03:04:56;;;;;;;18.80;14.70;;;;;;;12.63;100.00;101711.16;10374284;28;20054;-74
2022/10/13 03:09:57;;;;;;;25.50;14.23;;;;;;;12.65;100.00;101709.09;10376431;28;20033;-73
2022/10/13 03:14:57;;;;;;;22.10;14.55;;;;;;;12.66;100.00;101707.22;10376799;28;20168;-74
2022/10/13 03:19:58;;;;;;;29.30;15.80;;;;;;;12.62;100.00;101700.50;10357653;28;20030;-73
2022/10/13 03:24:59;;;;;;;28.25;16.67;;;;;;;12.63;100.00;101692.13;10375398;28;20512;-74
2022/10/13 03:29:59;;;;;;;22.00;15.43;;;;;;;12.64;100.00;101684.84;10390733;28;20457;-74
2022/10/13 03:34:59;;;;;;;29.95;15.88;;;;;;;12.63;100.00;101661.41;10376015;28;20049;-74
2022/10/13 03:40:00;;;;;;;24.15;15.63;;;;;;;12.64;100.00;101668.56;10374100;28;20065;-74
2022/10/13 03:45:01;;;;;;;16.98;14.82;;;;;;;12.64;100.00;101682.13;10358373;28;20029;-74
2022/10/13 03:50:02;;;;;;;22.75;15.93;;;;;;;12.59;100.00;101690.84;10374362;28;20072;-75
2022/10/13 03:55:03;;;;;;;21.48;14.57;;;;;;;12.63;100.00;101689.41;10374695;28;20459;-74
2022/10/13 04:00:08;;;;;;;28.13;15.85;;;;;;;12.71;100.00;101688.47;10375065;28;20120;-74
2022/10/13 04:05:08;;;;;;;28.40;16.75;;;;;;;12.76;100.00;101688.72;10376324;28;20371;-74
2022/10/13 04:10:09;;;;;;;23.70;15.23;;;;;;;12.76;100.00;101695.03;10381569;28;20117;-74
2022/10/13 04:15:10;;;;;;;31.88;15.65;;;;;;;12.78;100.00;101686.66;10379720;28;20045;-75
2022/10/13 04:20:10;;;;;;;23.63;16.17;;;;;;;12.78;100.00;101689.38;10381904;28;20041;-74
2022/10/13 04:25:10;;;;;;;26.13;15.73;;;;;;;12.75;100.00;101696.03;10381189;28;20125;-78
2022/10/13 04:30:11;;;;;;;24.33;16.55;;;;;;;12.76;100.00;101678.72;10381983;28;20026;-76
2022/10/13 04:35:11;;;;;;;28.58;15.80;;;;;;;12.72;100.00;101666.53;10381942;28;20040;-77
2022/10/13 04:40:12;;;;;;;25.05;14.60;;;;;;;12.74;100.00;101677.22;10382240;28;20521;-75
2022/10/13 04:45:12;;;;;;;31.42;16.75;;;;;;;12.75;100.00;101676.19;10384012;28;20129;-75
2022/10/13 04:50:13;;;;;;;29.20;17.17;;;;;;;12.75;100.00;101678.91;10380371;28;20445;-76
2022/10/13 04:55:13;;;;;;;23.52;16.15;;;;;;;12.74;100.00;101685.38;10379382;28;20068;-74
2022/10/13 05:00:14;;;;;;;28.15;18.65;;;;;;;12.77;100.00;101683.13;10380135;28;20104;-73
2022/10/13 05:05:14;;;;;;;27.10;16.98;;;;;;;12.79;100.00;101674.75;10380488;28;20058;-73
2022/10/13 05:10:14;;;;;;;31.42;15.88;;;;;;;12.82;100.00;101678.97;10379217;28;20108;-72
2022/10/13 05:15:15;;;;;;;26.75;15.27;;;;;;;12.85;100.00;101684.84;10381572;28;20117;-71
2022/10/13 05:20:16;;;;;;;21.58;14.40;;;;;;;12.85;100.00;101679.41;10379019;28;20049;-72
2022/10/13 05:25:17;;;;;;;29.23;16.35;;;;;;;12.88;100.00;101678.19;10376798;28;20529;-72
2022/10/13 05:30:17;;;;;;;17.52;13.30;;;;;;;12.90;100.00;101667.97;10378588;28;20125;-72
2022/10/13 05:35:17;;;;;;;27.80;14.35;;;;;;;12.88;100.00;101664.59;10379027;28;20045;-71
2022/10/13 05:40:20;;;;;;;34.42;16.65;;;;;;;12.92;100.00;101668.59;10393290;28;20045;-72
2022/10/13 05:45:20;;;;;;;26.85;15.25;;;;;;;12.91;100.00;101645.19;10393239;28;20354;-72
2022/10/13 05:50:21;;;;;;;17.73;12.77;;;;;;;12.89;100.00;101631.81;10392915;28;20038;-71
2022/10/13 05:55:21;;;;;;;27.13;15.63;;;;;;;12.90;100.00;101625.31;10377930;28;20375;-71
2022/10/13 06:00:21;;;;;;;30.70;14.18;;;;;;;12.92;100.00;101630.53;10393077;28;20096;-72
2022/10/13 06:05:23;;;;;;;19.52;16.30;;;;;;;12.91;100.00;101632.44;10378448;28;20054;-72
2022/10/13 06:10:23;;;;;;;30.27;15.55;;;;;;;12.88;100.00;101648.28;10375676;28;20081;-72
2022/10/13 06:15:24;;;;;;;22.83;16.30;;;;;;;12.95;100.00;101646.47;10376390;28;20089;-72
2022/10/13 06:20:26;;;;;;;25.40;16.00;;;;;;;12.99;100.00;101647.78;10391814;28;20065;-72
2022/10/13 06:25:27;;;;;;;25.65;16.85;;;;;;;13.00;100.00;101647.56;10376087;28;20061;-72
2022/10/13 06:30:28;;;;;;;22.83;18.40;;;;;;;12.98;100.00;101648.81;10376841;28;20168;-72
2022/10/13 06:35:28;;;;;;;27.70;16.30;;;;;;;13.04;100.00;101654.28;10375922;28;20133;-72
2022/10/13 06:40:29;;;;;;;18.38;15.05;;;;;;;13.08;100.00;101654.78;10375297;28;20469;-72
2022/10/13 06:45:29;;;;;;;21.40;16.83;;;;;;;13.12;100.00;101657.94;10376822;28;20355;-72
2022/10/13 06:50:31;;;;;;;18.38;16.08;;;;;;;13.17;100.00;101655.44;10379452;28;20037;-73
2022/10/13 06:55:31;;;;;;;24.17;15.52;;;;;;;13.17;100.00;101661.72;10379486;28;20057;-73
2022/10/13 07:00:32;;;;;;;22.67;15.60;;;;;;;13.19;100.00;101642.50;10377329;28;20066;-73
2022/10/13 07:05:32;;;;;;;17.63;15.23;;;;;;;13.21;100.00;101659.50;10374756;28;20082;-73
2022/10/13 07:10:32;;;;;;;17.63;14.98;;;;;;;13.23;100.00;101643.78;10373340;28;20042;-73
2022/10/13 07:15:33;;;;;;;14.75;13.30;;;;;;;13.28;100.00;101625.03;10374282;28;20129;-73
2022/10/13 07:20:34;;;;;;;25.80;14.57;;;;;;;13.30;100.00;101641.16;10373949;28;20041;-73
2022/10/13 07:25:34;;;;;;;18.33;12.90;;;;;;;13.30;100.00;101649.31;10375851;28;20160;-73
2022/10/13 07:30:37;;;;;;;21.90;13.25;;;;;;;13.33;100.00;101640.75;10374983;28;20029;-73
2022/10/13 07:35:37;;;;;;;20.30;13.80;;;;;;;13.41;100.00;101635.19;10389811;28;20060;-72
2022/10/13 07:40:38;;;;;;;20.00;11.98;;;;;;;13.54;100.00;101637.16;10374534;28;20033;-72
2022/10/13 07:45:38;;;;;;;12.40;11.20;;;;;;;13.65;100.00;101636.59;10373785;28;20041;-72
2022/10/13 07:50:39;;;;;;;17.52;10.82;;;;;;;13.65;100.00;101645.59;10382148;28;20042;-72
2022/10/13 07:55:39;;;;;;;18.00;12.02;;;;;;;13.60;100.00;101642.63;10383659;28;20034;-73
2022/10/13 08:00:39;;;;;;;18.85;10.65;;;;;;;13.60;100.00;101642.63;10382268;28;20097;-72
2022/10/13 08:05:40;;;;;;;17.00;10.43;;;;;;;13.64;100.00;101641.19;10381442;28;20065;-73
2022/10/13 08:10:40;;;;;;;14.45;9.55;;;;;;;13.73;100.00;101637.28;10383071;28;20139;-72
2022/10/13 08:15:41;;;;;;;27.38;11.80;;;;;;;13.79;100.00;101649.25;10382508;28;20093;-72
2022/10/13 08:20:43;;;;;;;26.88;11.30;;;;;;;13.79;100.00;101645.69;10380043;28;20045;-72
2022/10/13 08:25:43;;;;;;;17.30;11.23;;;;;;;13.85;100.00;101634.84;10381607;28;20072;-72
2022/10/13 08:30:44;;;;;;;15.55;9.45;;;;;;;13.90;100.00;101628.78;10379931;28;20371;-72
2022/10/13 08:35:44;;;;;;;13.68;10.00;;;;;;;13.91;100.00;101627.72;10381841;28;20113;-73
2022/10/13 08:40:48;;;;;;;12.05;9.05;;;;;;;13.96;100.00;101639.69;10396296;28;20406;-72
2022/10/13 08:45:49;;;;;;;10.02;8.95;;;;;;;14.09;100.00;101640.81;10379427;28;20037;-73
2022/10/13 08:50:51;;;;;;;10.30;9.18;;;;;;;14.21;100.00;101641.06;10379183;28;20026;-73
2022/10/13 08:56:08;;;;;;;16.05;8.32;;;;;;;14.11;100.00;101655.06;10362329;28;20088;-72
2022/10/13 09:01:16;;;;;;;;;;;;;;;14.15;100.00;101637.28;10365873;28;20045;-72
2022/10/13 09:06:27;;;;;;;24.17;12.15;;;;;;;14.27;100.00;101630.19;10381279;28;20008;-72
2022/10/13 09:11:29;;;;;;;19.65;13.80;;;;;;;14.33;100.00;101626.66;10393454;28;20042;-72
2022/10/13 09:16:33;;;;;;;20.42;13.95;;;;;;;14.45;100.00;101637.78;10380140;28;20041;-72
2022/10/13 09:21:34;;;;;;;18.48;14.20;;;;;;;14.41;100.00;101633.81;10380243;28;20034;-72
2022/10/13 09:26:38;;;;;;;21.08;13.88;;;;;;;14.44;100.00;101627.94;10379924;28;20069;-72
2022/10/13 09:31:38;;;;;;;20.63;15.20;;;;;;;14.65;100.00;101629.72;10379233;28;20390;-72
2022/10/13 09:36:38;;;;;;;18.67;13.52;;;;;;;14.81;100.00;101623.03;10378466;28;20141;-72
2022/10/13 09:41:40;;;;;;;27.30;15.98;;;;;;;14.92;100.00;101630.56;10395545;28;20025;-72
2022/10/13 09:46:44;;;;;;;25.05;16.30;;;;;;;15.04;100.00;101623.47;10377573;28;20457;-72
2022/10/13 09:51:44;;;;;;;23.08;13.63;;;;;;;15.13;100.00;101626.00;10378353;28;20588;-72
2022/10/13 09:56:49;;;;;;;17.60;13.38;;;;;;;15.21;100.00;101623.88;10393109;28;20096;-71
2022/10/13 10:01:50;;;;;;;13.73;11.75;;;;;;;15.29;100.00;101620.94;10377292;28;20136;-72
2022/10/13 10:06:50;;;;;;;17.48;13.00;;;;;;;15.30;100.00;101617.16;10376123;28;20042;-72
2022/10/13 10:11:51;;;;;;;12.45;10.98;;;;;;;15.36;100.00;101610.00;10377350;28;20497;-72
2022/10/13 10:16:57;;;;;;;25.05;14.15;;;;;;;15.32;100.00;101603.31;10359591;28;20033;-72
2022/10/13 10:22:19;;;;;;;16.92;12.98;;;;;;;14.99;100.00;101598.69;10375414;28;20037;-72
2022/10/13 10:27:25;;;;;;;19.00;13.77;;;;;;;14.92;100.00;101600.59;10376807;28;20466;-72
2022/10/13 10:32:54;;;;;;;20.88;14.90;;;;;;;14.80;100.00;101605.81;10375896;28;20033;-72
2022/10/13 10:38:14;;;;;;;21.77;13.38;;;;;;;14.73;100.00;101585.88;10391953;28;20034;-74
2022/10/13 10:43:30;;;;;;;16.77;13.15;;;;;;;14.54;100.00;101584.81;10375673;28;20046;-74
2022/10/13 10:48:35;;;;;;;20.52;13.63;;;;;;;14.40;100.00;101589.38;10376500;28;20044;-74
2022/10/13 10:53:55;;;;;;;24.58;15.98;;;;;;;14.43;100.00;101602.59;10359603;28;20037;-73
2022/10/13 10:59:22;;;;;;;18.52;10.73;;;;;;;14.51;100.00;101590.66;10376265;28;20042;-75
2022/10/13 11:04:41;;;;;;;16.77;13.50;;;;;;;14.50;100.00;101578.06;10371297;28;20125;-72
2022/10/13 11:09:42;;;;;;;13.57;10.45;;;;;;;14.48;100.00;101569.25;10377147;28;20101;-71
2022/10/13 11:14:42;;;;;;;19.00;11.90;;;;;;;14.59;100.00;101571.41;10376537;28;20113;-71
2022/10/13 11:19:43;;;;;;;19.20;10.88;;;;;;;14.82;100.00;101571.00;10374959;28;20030;-71
2022/10/13 11:24:51;;;;;;;21.65;12.80;;;;;;;14.80;100.00;101555.91;10390636;28;20038;-71
2022/10/13 11:29:54;;;;;;;23.50;10.75;;;;;;;14.57;100.00;101556.31;10375286;28;20026;-71
2022/10/13 11:34:58;;;;;;;12.15;10.45;;;;;;;14.49;100.00;101562.78;10357418;28;20386;-71
2022/10/13 11:40:36;;;;;;;19.15;13.35;;;;;;;14.50;100.00;101550.81;10374027;28;20069;-71
2022/10/13 11:46:14;;;;;;;26.30;12.82;;;;;;;14.61;100.00;101538.47;10374693;28;20030;-71
2022/10/13 11:51:22;;;;;;;23.27;13.82;;;;;;;14.48;100.00;101536.53;10376113;28;20040;-71
2022/10/13 11:56:42;;;;;;;33.42;12.77;;;;;;;14.39;100.00;101535.09;10389655;28;20077;-71
2022/10/13 12:01:43;;;;;;;23.60;14.15;;;;;;;14.33;100.00;101533.19;10390666;28;20462;-71
2022/10/13 12:06:53;;;;;;;20.05;12.95;;;;;;;14.26;100.00;101526.88;10373913;28;20057;-71
2022/10/13 12:11:58;;;;;;;22.23;15.60;;;;;;;14.25;100.00;101531.47;10357562;28;20092;-71
2022/10/13 12:17:00;;;;;;;15.15;13.52;;;;;;;14.19;100.00;101529.59;10372650;28;20403;-71
2022/10/13 12:22:00;;;;;;;27.35;15.60;;;;;;;14.08;100.00;101522.88;10388625;28;20061;-71
2022/10/13 12:27:08;;;;;;;25.02;14.98;;;;;;;14.07;100.00;101517.59;10373775;28;20065;-70
2022/10/13 12:32:35;;;;;;;16.67;13.43;;;;;;;14.10;100.00;101512.63;10389161;28;20559;-71
2022/10/13 12:37:36;;;;;;;20.57;14.33;;;;;;;14.09;100.00;101526.41;10379421;28;20046;-70
2022/10/13 12:42:36;;;;;;;17.70;14.88;;;;;;;14.05;100.00;101515.09;10381272;28;20033;-70
2022/10/13 12:47:43;;;;;;;30.98;16.00;;;;;;;14.09;100.00;101510.09;10396221;28;20037;-70
2022/10/13 12:52:44;;;;;;;21.48;15.80;;;;;;;14.16;100.00;101511.75;10380279;28;20030;-70
2022/10/13 12:57:44;;;;;;;17.38;13.25;;;;;;;14.31;100.00;101508.88;10380706;28;20038;-71
2022/10/13 13:02:55;;;;;;;24.90;15.05;;;;;;;14.48;100.00;101503.84;10380154;28;20183;-70
2022/10/13 13:07:56;;;;;;;19.25;12.88;;;;;;;14.48;100.00;101506.56;10394153;28;20046;-70
2022/10/13 13:13:11;;;;;;;23.90;11.82;;;;;;;14.39;100.00;101505.97;10395991;28;20030;-70
2022/10/13 13:18:35;;;;;;;10.48;8.48;;;;;;;14.15;100.00;101511.97;10393194;28;20101;-70
2022/10/13 13:23:36;;;;;;;7.00;6.35;;;;;;;13.94;100.00;101507.50;10378034;28;20481;-70
2022/10/13 13:28:36;;;;;;;3.13;2.28;;;;;;;13.62;100.00;101515.34;10361481;28;20034;-70
2022/10/13 13:33:37;;;;;;;2.83;2.17;;;;;;;13.42;100.00;101515.25;10360935;28;20068;-70
2022/10/13 13:38:37;;;;;;;2.33;2.00;;;;;;;13.36;100.00;101523.41;10361189;28;20389;-70
2022/10/13 13:43:38;;;;;;;9.35;2.80;;;;;;;13.27;100.00;101530.88;10377978;28;20045;-69
2022/10/13 13:48:38;;;;;;;2.53;2.33;;;;;;;13.24;100.00;101544.81;10376886;28;20109;-70
2022/10/13 13:53:39;;;;;;;3.47;2.28;;;;;;;13.19;100.00;101540.00;10377550;28;20066;-70
2022/10/13 13:58:39;;;;;;;2.05;1.85;;;;;;;13.09;100.00;101547.69;10377358;28;20584;-70
2022/10/13 14:03:40;;;;;;;1.63;1.52;;;;;;;12.93;100.00;101540.66;10377077;28;20505;-70
2022/10/13 14:08:41;;;;;;;1.98;1.88;;;;;;;12.90;100.00;101538.34;10378842;28;20053;-70
2022/10/13 14:13:42;;;;;;;4.45;2.30;;;;;;;12.86;100.00;101530.75;10377603;28;20045;-70
2022/10/13 14:18:42;;;;;;;3.95;1.60;;;;;;;12.86;100.00;101517.16;10376284;28;20386;-70
2022/10/13 14:23:45;;;;;;;1.50;1.40;;;;;;;13.10;100.00;101533.03;10375659;28;20034;-70
2022/10/13 14:28:48;;;;;;;3.28;1.50;;;;;;;13.15;100.00;101525.13;10376273;28;20505;-70
2022/10/13 14:33:48;;;;;;;3.83;1.58;;;;;;;13.42;100.00;101519.88;10376363;28;20042;-70
2022/10/13 14:38:50;;;;;;;1.73;1.63;;;;;;;13.52;100.00;101517.63;10376353;28;20033;-70
2022/10/13 14:43:54;;;;;;;1.63;1.08;;;;;;;13.28;100.00;101501.81;10374855;28;20473;-70
2022/10/13 14:48:55;;;;;;;1.90;1.27;;;;;;;13.65;100.00;101509.50;10358596;28;20485;-70
2022/10/13 14:53:56;;;;;;;1.50;1.33;;;;;;;14.15;100.00;101515.53;10375740;28;20042;-70
2022/10/13 14:58:57;;;;;;;1.40;1.30;;;;;;;14.09;100.00;101524.53;10374939;28;20065;-70
2022/10/13 15:03:59;;;;;;;1.67;1.42;;;;;;;14.07;100.00;101518.47;10374708;28;20164;-70
2022/10/13 15:08:59;;;;;;;1.30;1.20;;;;;;;13.95;100.00;101507.31;10374791;28;20054;-70
2022/10/13 15:14:00;;;;;;;1.17;1.13;;;;;;;13.44;100.00;101502.31;10374907;28;20030;-70
2022/10/13 15:19:00;;;;;;;1.05;1.05;;;;;;;13.18;100.00;101508.41;10374907;28;20054;-70
2022/10/13 15:24:00;;;;;;;1.13;1.02;;;;;;;13.06;100.00;101509.19;10374269;28;20042;-70
2022/10/13 15:29:01;;;;;;;2.47;1.13;;;;;;;12.96;100.00;101504.94;10373507;28;20034;-70
2022/10/13 15:34:01;;;;;;;6.68;1.92;;;;;;;12.86;100.00;101511.72;10374498;28;20038;-70
2022/10/13 15:39:02;;;;;;;0.98;0.88;;;;;;;12.72;100.00;101506.19;10375281;28;20041;-70
2022/10/13 15:44:02;;;;;;;2.40;1.58;;;;;;;12.63;100.00;101510.09;10374638;28;20045;-70
2022/10/13 15:49:02;;;;;;;2.10;1.58;;;;;;;12.54;100.00;101500.41;10373486;28;20022;-70
2022/10/13 15:54:03;;;;;;;2.03;1.65;;;;;;;12.45;100.00;101505.16;10374908;28;20034;-70
2022/10/13 15:59:03;;;;;;;2.38;2.08;;;;;;;12.40;100.00;101514.91;10374319;28;20550;-70
2022/10/13 16:04:04;;;;;;;3.05;2.03;;;;;;;12.36;100.00;101513.63;10374257;28;20038;-70
2022/10/13 16:09:04;;;;;;;2.92;2.20;;;;;;;12.26;100.00;101508.50;10375200;28;20050;-70
2022/10/13 16:14:05;;;;;;;3.72;2.45;;;;;;;12.16;100.00;101511.53;10382302;28;20041;-70
2022/10/13 16:19:05;;;;;;;2.00;1.85;;;;;;;12.03;100.00;101514.13;10382127;28;20038;-70
2022/10/13 16:24:06;;;;;;;4.38;1.70;;;;;;;11.94;100.00;101515.28;10381845;28;20069;-70
2022/10/13 16:29:07;;;;;;;2.45;2.25;;;;;;;11.89;100.00;101509.56;10381503;28;20557;-70
2022/10/13 16:34:07;;;;;;;2.05;1.90;;;;;;;11.81;100.00;101519.47;10381099;28;20042;-70
2022/10/13 16:39:07;;;;;;;3.42;2.88;;;;;;;11.68;100.00;101527.47;10363713;28;20037;-69
2022/10/13 16:44:08;;;;;;;2.78;2.55;;;;;;;11.59;100.00;101531.31;10379810;28;20044;-69
2022/10/13 16:49:11;;;;;;;3.63;3.33;;;;;;;11.49;100.00;101544.31;10380514;28;20030;-70
2022/10/13 16:54:12;;;;;;;3.45;3.15;;;;;;;11.35;100.00;101548.69;10379369;28;20469;-70
2022/10/13 16:59:12;;;;;;;7.40;3.38;;;;;;;11.28;100.00;101554.03;10380059;28;20042;-70
2022/10/13 17:04:12;;;;;;;6.75;4.53;;;;;;;11.23;100.00;101553.75;10378906;28;20045;-70
2022/10/13 17:09:13;;;;;;;6.45;5.32;;;;;;;11.20;100.00;101551.41;10378548;28;20470;-69
2022/10/13 17:14:13;;;;;;;4.88;4.22;;;;;;;11.26;100.00;101555.22;10379508;28;20080;-70
2022/10/13 17:19:13;;;;;;;5.47;4.97;;;;;;;11.16;100.00;101575.31;10380174;28;20116;-69
2022/10/13 17:24:15;;;;;;;7.00;4.70;;;;;;;11.04;100.00;101567.81;10379590;28;20037;-70
2022/10/13 17:29:15;;;;;;;5.97;5.45;;;;;;;11.07;100.00;101572.88;10379257;28;20045;-70
2022/10/13 17:34:16;;;;;;;4.40;3.97;;;;;;;10.98;100.00;101574.84;10378979;28;20037;-70
2022/10/13 17:39:16;;;;;;;13.40;6.80;;;;;;;11.05;100.00;101566.81;10378812;28;20489;-70
2022/10/13 17:44:19;;;;;;;11.30;5.43;;;;;;;11.01;100.00;101565.47;10378641;28;20465;-70
2022/10/13 17:49:19;;;;;;;6.45;5.20;;;;;;;10.94;100.00;101584.34;10378600;28;20034;-70
2022/10/13 17:54:20;;;;;;;8.98;5.47;;;;;;;10.85;100.00;101580.88;10377460;28;20049;-69
2022/10/13 17:59:20;;;;;;;8.48;6.07;;;;;;;10.75;100.00;101595.69;10360933;28;20446;-70
2022/10/13 18:04:22;;;;;;;8.10;7.20;;;;;;;10.62;100.00;101593.59;10379154;28;20073;-69
2022/10/13 18:09:23;;;;;;;12.00;9.93;;;;;;;10.59;100.00;101602.06;10376105;28;20054;-69
2022/10/13 18:14:23;;;;;;;10.00;8.65;;;;;;;10.55;100.00;101606.16;10377413;28;20045;-69
2022/10/13 18:19:24;;;;;;;9.10;7.07;;;;;;;10.40;100.00;101598.84;10377721;28;20030;-69
2022/10/13 18:24:24;;;;;;;15.00;9.70;;;;;;;10.29;100.00;101596.53;10377461;28;20041;-70
2022/10/13 18:29:24;;;;;;;13.30;9.95;;;;;;;10.23;100.00;101608.03;10376207;28;20037;-69
2022/10/13 18:34:25;;;;;;;12.55;10.60;;;;;;;10.14;100.00;101603.66;10376111;28;20038;-69
2022/10/13 18:39:26;;;;;;;13.48;11.90;;;;;;;10.22;100.00;101588.25;10375123;28;20385;-71
2022/10/13 18:44:27;;;;;;;11.68;10.43;;;;;;;10.30;100.00;101590.06;10374916;28;20486;-70
2022/10/13 18:49:31;;;;;;;12.90;10.20;;;;;;;10.28;100.00;101584.00;10377299;28;20037;-70
2022/10/13 18:54:32;;;;;;;11.35;10.25;;;;;;;10.26;100.00;101591.47;10376947;28;20041;-70
2022/10/13 18:59:37;;;;;;;12.57;11.27;;;;;;;10.11;100.00;101599.44;10375562;28;20080;-69
2022/10/13 19:04:37;;;;;;;15.45;11.82;;;;;;;9.99;100.00;101606.31;10376127;28;20453;-70
2022/10/13 19:09:38;;;;;;;14.85;11.93;;;;;;;9.87;100.00;101596.88;10377130;28;20054;-68
2022/10/13 19:14:38;;;;;;;17.45;12.02;;;;;;;9.80;100.00;101609.44;10374644;28;20477;-70
2022/10/13 19:19:39;;;;;;;17.45;13.05;;;;;;;9.71;100.00;101603.19;10373918;28;20041;-70
2022/10/13 19:24:40;;;;;;;11.15;9.43;;;;;;;9.67;100.00;101596.47;10374894;28;20034;-70
2022/10/13 19:29:40;;;;;;;12.82;11.48;;;;;;;9.61;100.00;101608.81;10375241;28;20033;-69
2022/10/13 19:34:41;;;;;;;13.27;11.90;;;;;;;9.51;100.00;101605.47;10373745;28;20132;-69
2022/10/13 19:39:41;;;;;;;16.42;11.55;;;;;;;9.42;100.00;101615.44;10374765;28;20026;-70
2022/10/13 19:44:41;;;;;;;11.48;9.77;;;;;;;9.46;100.00;101616.78;10374005;28;20470;-69
2022/10/13 19:49:42;;;;;;;15.48;11.98;;;;;;;9.43;100.00;101622.53;10374792;28;20042;-69
2022/10/13 19:54:42;;;;;;;15.88;13.63;;;;;;;9.40;100.00;101620.19;10373979;28;20041;-70
2022/10/13 19:59:42;;;;;;;22.13;15.20;;;;;;;9.30;100.00;101619.53;10373863;28;20061;-70
2022/10/13 20:04:43;;;;;;;21.50;14.23;;;;;;;9.26;100.00;101615.50;10375552;28;20048;-70
2022/10/13 20:09:44;;;;;;;21.05;13.95;;;;;;;9.27;100.00;101622.56;10373932;28;20394;-70
2022/10/13 20:14:44;;;;;;;17.13;12.57;;;;;;;9.23;100.00;101624.78;10373736;28;20034;-70
2022/10/13 20:19:45;;;;;;;19.33;13.98;;;;;;;9.19;100.00;101625.28;10374155;28;20045;-70
2022/10/13 20:24:46;;;;;;;14.70;12.93;;;;;;;9.12;100.00;101625.09;10373715;28;20030;-69
2022/10/13 20:29:46;;;;;;;17.30;13.23;;;;;;;9.18;100.00;101626.28;10372282;28;20049;-69
2022/10/13 20:34:47;;;;;;;16.60;12.40;;;;;;;9.26;100.00;101631.69;10373337;28;20493;-69
2022/10/13 20:39:47;;;;;;;24.88;14.65;;;;;;;9.27;100.00;101625.28;10374630;28;20045;-69
2022/10/13 20:44:47;;;;;;;22.25;14.77;;;;;;;9.40;100.00;101633.69;10373399;28;20100;-68
2022/10/13 20:49:48;;;;;;;20.77;16.83;;;;;;;9.68;100.00;101630.59;10373329;28;20034;-69
2022/10/13 20:54:48;;;;;;;23.23;16.73;;;;;;;9.89;100.00;101630.00;10379421;28;20494;-69
2022/10/13 20:59:49;;;;;;;20.17;14.20;;;;;;;10.15;100.00;101621.63;10382011;28;20121;-69
2022/10/13 21:04:49;;;;;;;21.48;15.85;;;;;;;10.35;100.00;101613.91;10381958;28;20057;-69
2022/10/13 21:09:50;;;;;;;19.92;15.00;;;;;;;10.48;100.00;101611.47;10379464;28;20489;-69
2022/10/13 21:14:50;;;;;;;15.48;13.88;;;;;;;10.50;100.00;101606.72;10378444;28;20033;-69
2022/10/13 21:19:50;;;;;;;16.42;12.65;;;;;;;10.52;100.00;101604.66;10378861;28;20033;-69
2022/10/13 21:24:51;;;;;;;13.88;11.93;;;;;;;10.54;100.00;101602.63;10379301;28;20037;-69
2022/10/13 21:29:51;;;;;;;14.93;13.02;;;;;;;10.43;100.00;101598.47;10379111;28;20064;-69
2022/10/13 21:34:52;;;;;;;14.00;12.38;;;;;;;10.40;100.00;101593.41;10378320;28;20037;-69
2022/10/13 21:39:53;;;;;;;14.32;12.82;;;;;;;10.31;100.00;101593.66;10394609;28;20030;-69
2022/10/13 21:44:53;;;;;;;15.45;13.93;;;;;;;10.23;100.00;101592.63;10395356;28;20108;-69
2022/10/13 21:49:54;;;;;;;14.57;13.30;;;;;;;10.25;100.00;101597.88;10377535;28;20045;-69
2022/10/13 21:54:54;;;;;;;30.90;11.57;;;;;;;10.37;100.00;101599.19;10378048;28;20045;-69
2022/10/13 21:59:54;;;;;;;15.27;13.20;;;;;;;10.52;100.00;101584.88;10378534;28;20474;-69
2022/10/13 22:04:55;;;;;;;25.75;17.52;;;;;;;10.63;100.00;101587.16;10378431;28;20382;-69
2022/10/13 22:09:55;;;;;;;19.42;15.27;;;;;;;10.68;100.00;101576.59;10375831;28;20062;-69
2022/10/13 22:14:55;;;;;;;18.13;16.27;;;;;;;10.68;100.00;101568.47;10377914;28;20034;-69
2022/10/13 22:19:56;;;;;;;20.38;16.17;;;;;;;10.60;100.00;101563.16;10377735;28;20061;-69
2022/10/13 22:24:56;;;;;;;18.00;14.93;;;;;;;10.41;100.00;101559.91;10375763;28;20470;-69
2022/10/13 22:29:57;;;;;;;22.08;15.38;;;;;;;10.41;100.00;101561.75;10376101;28;20406;-69
2022/10/13 22:34:57;;;;;;;17.05;14.20;;;;;;;10.47;100.00;101559.16;10376666;28;20038;-69